Time;durP1;ratioP1;P1;durP2;ratioP2;P2;SDS_P1;SDS_P2;PMS_P1;PMS_P2;Temp;Humidity;BMP_temperature;BMP_pressure;BME280_temperature;BME280_humidity;BME280_pressure;Samples;Min_cycle;Max_cycle;Signal;HPM_P1;HPM_P2
2023/01/24 00:01:33;;;;;;;25.00;13.40;;;;;;;1.56;100.00;99955.56;4913171;29;20238;-57
2023/01/24 00:04:00;;;;;;;24.43;13.47;;;;;;;1.58;100.00;99960.69;4912168;29;20237;-57
2023/01/24 00:06:28;;;;;;;26.53;13.43;;;;;;;1.61;100.00;99957.94;4914672;29;20229;-54
2023/01/24 00:08:54;;;;;;;25.70;14.07;;;;;;;1.63;100.00;99953.59;4912275;29;20806;-54
2023/01/24 00:11:21;;;;;;;24.73;13.03;;;;;;;1.61;100.00;99958.81;4920335;28;20735;-53
2023/01/24 00:13:47;;;;;;;23.67;12.70;;;;;;;1.62;100.00;99962.19;4914386;29;20230;-53
2023/01/24 00:16:16;;;;;;;24.97;12.83;;;;;;;1.58;100.00;99958.09;4915788;29;20238;-54
2023/01/24 00:18:44;;;;;;;25.17;13.87;;;;;;;1.58;100.00;99958.09;4912323;29;20235;-53
2023/01/24 00:21:13;;;;;;;29.33;13.63;;;;;;;1.61;100.00;99969.09;4914159;29;20239;-60
2023/01/24 00:23:41;;;;;;;26.07;14.20;;;;;;;1.60;100.00;99959.72;4905802;29;20238;-53
2023/01/24 00:26:08;;;;;;;26.57;13.80;;;;;;;1.60;100.00;99958.84;4910386;29;20250;-55
2023/01/24 00:28:35;;;;;;;25.90;13.90;;;;;;;1.61;100.00;99951.09;4911019;29;20227;-55
2023/01/24 00:31:02;;;;;;;24.80;13.93;;;;;;;1.64;100.00;99959.59;4906751;29;20349;-53
2023/01/24 00:33:28;;;;;;;23.93;12.23;;;;;;;1.58;100.00;99969.22;4909213;29;20612;-53
2023/01/24 00:35:55;;;;;;;27.53;14.00;;;;;;;1.59;100.00;99950.31;4907661;29;20235;-55
2023/01/24 00:38:22;;;;;;;23.43;12.50;;;;;;;1.57;100.00;99961.56;4909095;29;20236;-52
2023/01/24 00:40:51;;;;;;;26.00;13.53;;;;;;;1.61;100.00;99963.97;4908450;29;20232;-52
2023/01/24 00:43:18;;;;;;;24.40;13.03;;;;;;;1.53;100.00;99972.88;4908970;29;20279;-54
2023/01/24 00:45:46;;;;;;;27.40;14.50;;;;;;;1.50;100.00;99955.00;4906232;29;20239;-59
2023/01/24 00:48:13;;;;;;;15.80;8.53;;;;;;;1.54;100.00;99952.22;4909300;29;20580;-53
2023/01/24 00:50:40;;;;;;;19.83;9.13;;;;;;;1.53;100.00;99958.28;4907934;29;20230;-55
2023/01/24 00:53:07;;;;;;;24.63;13.57;;;;;;;1.55;100.00;99965.94;4924776;29;20602;-59
2023/01/24 00:55:35;;;;;;;30.48;17.52;;;;;;;1.55;100.00;99948.75;4909021;29;20482;-54
2023/01/24 00:58:03;;;;;;;27.80;15.00;;;;;;;1.55;100.00;99948.75;4908102;29;20342;-52
2023/01/24 01:00:29;;;;;;;29.43;14.77;;;;;;;1.55;100.00;99943.59;4912022;29;20227;-56
2023/01/24 01:02:56;;;;;;;25.67;11.53;;;;;;;1.51;100.00;99946.38;4905424;29;20232;-53
2023/01/24 01:05:22;;;;;;;22.27;12.33;;;;;;;1.47;100.00;99941.34;4909726;29;20290;-54
2023/01/24 01:07:49;;;;;;;29.00;14.60;;;;;;;1.47;100.00;99945.63;4907739;29;20231;-56
2023/01/24 01:10:15;;;;;;;25.87;14.07;;;;;;;1.46;100.00;99942.25;4915165;28;20240;-55
2023/01/24 01:12:42;;;;;;;28.50;14.07;;;;;;;1.50;100.00;99947.28;4913017;29;20252;-55
2023/01/24 01:15:11;;;;;;;29.17;14.40;;;;;;;1.54;100.00;99946.25;4915276;29;20237;-57
2023/01/24 01:17:38;;;;;;;27.97;14.00;;;;;;;1.44;100.00;99949.19;4918691;29;20245;-57
2023/01/24 01:20:06;;;;;;;32.90;15.73;;;;;;;1.46;100.00;99942.25;4915638;29;20587;-57
2023/01/24 01:22:32;;;;;;;26.57;13.57;;;;;;;1.44;100.00;99959.47;4915474;29;20249;-53
2023/01/24 01:24:59;;;;;;;28.90;15.23;;;;;;;1.46;100.00;99952.53;4911841;29;20695;-56
2023/01/24 01:27:26;;;;;;;27.73;13.40;;;;;;;1.47;100.00;99961.09;4918857;29;20227;-55
2023/01/24 01:29:53;;;;;;;26.17;13.30;;;;;;;1.40;100.00;99964.78;4928633;28;20240;-53
2023/01/24 01:32:21;;;;;;;28.40;14.07;;;;;;;1.43;100.00;99977.53;4917098;29;20488;-55
2023/01/24 01:34:48;;;;;;;26.77;14.23;;;;;;;1.43;100.00;99974.97;4912281;29;20711;-55
2023/01/24 01:37:14;;;;;;;29.90;15.23;;;;;;;1.38;100.00;99992.31;4916303;29;20227;-54
2023/01/24 01:39:41;;;;;;;31.80;13.63;;;;;;;1.42;100.00;99983.56;4917792;29;20252;-54
2023/01/24 01:42:08;;;;;;;27.77;14.53;;;;;;;1.41;100.00;99993.03;4920860;29;20602;-53
2023/01/24 01:44:42;;;;;;;26.97;14.37;;;;;;;1.37;100.00;99988.06;4920066;29;20237;-55
2023/01/24 01:47:19;;;;;;;30.03;14.30;;;;;;;1.36;100.00;99981.25;4915290;29;20230;-54
2023/01/24 01:49:53;;;;;;;23.47;11.20;;;;;;;1.39;100.00;99992.25;4917956;29;20258;-53
2023/01/24 01:52:22;;;;;;;30.77;14.70;;;;;;;1.41;100.00;99995.63;4921356;29;20241;-56
2023/01/24 01:54:49;;;;;;;24.10;13.73;;;;;;;1.37;100.00;99985.47;4915172;29;20255;-54
2023/01/24 01:57:20;;;;;;;20.50;10.40;;;;;;;1.33;100.00;99995.91;4924956;29;20285;-54
2023/01/24 01:59:51;;;;;;;31.83;15.60;;;;;;;1.39;100.00;99988.84;4911952;29;20232;-54
2023/01/24 02:02:21;;;;;;;30.40;15.27;;;;;;;1.40;100.00;99993.09;4921340;29;20235;-55
2023/01/24 02:04:52;;;;;;;28.47;15.13;;;;;;;1.38;100.00;99977.72;4914997;29;20238;-55
2023/01/24 02:07:22;;;;;;;28.23;14.50;;;;;;;1.38;100.00;99972.59;4924838;29;20234;-54
2023/01/24 02:09:51;;;;;;;28.00;14.10;;;;;;;1.39;100.00;99992.25;4912589;29;20246;-55
2023/01/24 02:12:20;;;;;;;22.87;10.00;;;;;;;1.35;100.00;99984.72;4918734;29;20228;-54
2023/01/24 02:17:34;;;;;;;27.20;12.30;;;;;;;1.33;100.00;99989.94;4918347;29;20287;-55
2023/01/24 02:20:26;;;;;;;28.50;14.30;;;;;;;1.45;100.00;99983.47;4917187;29;20242;-55
2023/01/24 02:23:02;;;;;;;20.90;10.63;;;;;;;1.41;100.00;99985.31;4911270;29;20349;-54
2023/01/24 02:25:34;;;;;;;26.67;13.57;;;;;;;1.44;100.00;99984.34;4919383;29;20911;-55
2023/01/24 02:28:03;;;;;;;22.33;11.37;;;;;;;1.41;100.00;99994.75;4917651;29;24255;-53
2023/01/24 02:30:30;;;;;;;27.60;14.20;;;;;;;1.46;100.00;100003.16;4926278;29;20699;-56
2023/01/24 02:32:58;;;;;;;27.57;14.60;;;;;;;1.42;100.00;99996.44;4926387;29;20516;-56
2023/01/24 02:35:27;;;;;;;27.67;14.63;;;;;;;1.44;100.00;100015.22;4931912;28;20227;-56
2023/01/24 02:37:56;;;;;;;29.57;14.40;;;;;;;1.42;100.00;100017.03;4916395;29;20700;-55
2023/01/24 02:40:24;;;;;;;28.53;14.53;;;;;;;1.43;100.00;100024.69;4929198;29;20226;-55
2023/01/24 02:42:53;;;;;;;30.57;14.97;;;;;;;1.40;100.00;100019.66;4915513;29;20234;-55
2023/01/24 02:45:25;;;;;;;28.77;14.43;;;;;;;1.44;100.00;100026.38;4924342;29;20227;-53
2023/01/24 02:47:54;;;;;;;27.43;14.33;;;;;;;1.41;100.00;100023.91;4921568;29;20681;-56
2023/01/24 02:50:23;;;;;;;23.07;13.50;;;;;;;1.38;100.00;100029.19;4917629;29;20230;-53
2023/01/24 02:58:05;;;;;;;28.10;14.07;;;;;;;1.44;100.00;100036.69;4919814;29;20639;-53
2023/01/24 02:58:24;;;;;;;27.20;14.53;;;;;;;1.31;100.00;100031.13;4911634;29;20234;-53
2023/01/24 03:00:52;;;;;;;25.13;12.43;;;;;;;1.35;100.00;100031.88;4930857;29;20315;-55
2023/01/24 03:03:19;;;;;;;29.10;14.97;;;;;;;1.38;100.00;100020.63;4916972;29;20389;-53
2023/01/24 03:05:57;;;;;;;29.40;14.70;;;;;;;1.38;100.00;100026.63;4914824;29;20695;-56
2023/01/24 03:08:31;;;;;;;26.83;13.67;;;;;;;1.34;100.00;100019.91;4914725;29;20261;-53
2023/01/24 03:10:59;;;;;;;25.93;13.60;;;;;;;1.28;100.00;100022.69;4922133;29;21297;-56
2023/01/24 03:35:33;;;;;;;27.90;14.43;;;;;;;1.32;100.00;100030.22;4917021;29;20223;-55
2023/01/24 03:40:44;;;;;;;27.40;14.07;;;;;;;1.31;100.00;100025.16;4914330;29;20314;-55
2023/01/24 03:43:11;;;;;;;28.37;14.73;;;;;;;1.36;100.00;100024.97;4922055;29;20262;-54
2023/01/24 03:45:40;;;;;;;29.97;14.57;;;;;;;1.32;100.00;100029.41;4916034;29;20241;-53
2023/01/24 03:48:14;;;;;;;29.93;15.03;;;;;;;1.37;100.00;100026.66;4916085;29;20219;-55
2023/01/24 03:53:32;;;;;;;25.83;13.27;;;;;;;1.31;100.00;100031.13;4919839;29;20236;-56
2023/01/24 03:56:01;;;;;;;29.60;18.25;;;;;;;1.35;100.00;100043.88;4913255;29;20480;-54
2023/01/24 03:58:33;;;;;;;29.57;14.17;;;;;;;1.32;100.00;100047.41;4925070;29;20232;-56
2023/01/24 04:01:04;;;;;;;26.20;14.03;;;;;;;1.36;100.00;100048.13;4922616;29;20339;-55
2023/01/24 04:03:59;;;;;;;26.83;14.53;;;;;;;1.35;100.00;100049.88;4916294;29;20249;-53
2023/01/24 04:06:26;;;;;;;25.93;13.73;;;;;;;1.31;100.00;100044.00;4933046;29;20245;-55
2023/01/24 04:08:53;;;;;;;30.80;14.77;;;;;;;1.32;100.00;100048.25;4914229;29;20237;-55
2023/01/24 04:11:21;;;;;;;29.70;13.90;;;;;;;1.35;100.00;100049.03;4918056;29;20261;-57
2023/01/24 04:13:52;;;;;;;27.20;13.60;;;;;;;1.31;100.00;100036.28;4914411;29;20238;-53
2023/01/24 04:16:19;;;;;;;27.03;14.23;;;;;;;1.28;100.00;100043.28;4917634;29;20231;-53
2023/01/24 04:19:07;;;;;;;21.80;10.37;;;;;;;1.26;100.00;100042.50;4915025;29;20759;-53
2023/01/24 04:21:35;;;;;;;26.70;13.77;;;;;;;1.31;100.00;100043.16;4918130;29;20250;-53
2023/01/24 04:24:01;;;;;;;24.47;11.93;;;;;;;1.25;100.00;100048.53;4927476;29;20250;-55
2023/01/24 04:26:29;;;;;;;23.40;11.30;;;;;;;1.27;100.00;100033.88;4919903;29;20567;-52
2023/01/24 04:28:57;;;;;;;24.90;11.40;;;;;;;1.25;100.00;100041.66;4914098;29;20318;-54
2023/01/24 04:31:24;;;;;;;27.17;13.87;;;;;;;1.25;100.00;100038.25;5101443;23;20313;-54
2023/01/24 04:34:01;;;;;;;27.63;14.03;;;;;;;1.23;100.00;100040.03;4907067;29;21685;-52
2023/01/24 04:36:31;;;;;;;28.37;13.63;;;;;;;1.25;100.00;100028.78;4908131;29;20691;-54
2023/01/24 04:38:58;;;;;;;26.00;12.73;;;;;;;1.23;100.00;100034.91;4904306;29;21357;-52
2023/01/24 04:41:32;;;;;;;14.57;6.67;;;;;;;1.21;100.00;100034.94;4908391;29;20244;-54
2023/01/24 04:43:59;;;;;;;26.93;13.53;;;;;;;1.20;100.00;100043.53;4911123;29;20745;-56
2023/01/24 04:46:28;;;;;;;28.27;13.20;;;;;;;1.20;100.00;100035.81;4913598;29;20289;-56
2023/01/24 04:48:56;;;;;;;21.93;10.33;;;;;;;1.16;100.00;100047.97;4912666;29;20273;-56
2023/01/24 04:51:34;;;;;;;24.63;11.80;;;;;;;1.14;100.00;100044.63;4929124;29;20235;-53
2023/01/24 04:54:03;;;;;;;26.90;12.83;;;;;;;1.15;100.00;100046.28;4909699;29;20295;-54
2023/01/24 04:56:30;;;;;;;21.30;11.53;;;;;;;1.16;100.00;100047.13;4910394;29;20700;-53
2023/01/24 04:58:58;;;;;;;27.87;13.77;;;;;;;1.16;100.00;100031.69;4909813;29;20235;-54
2023/01/24 05:01:25;;;;;;;16.47;8.10;;;;;;;1.10;100.00;100044.78;4925607;29;20281;-54
2023/01/24 05:04:01;;;;;;;15.27;7.33;;;;;;;1.13;100.00;100037.81;4908051;29;20250;-55
2023/01/24 05:06:31;;;;;;;24.37;11.27;;;;;;;1.15;100.00;100048.00;4912377;29;20230;-54
2023/01/24 05:09:01;;;;;;;28.90;14.63;;;;;;;1.20;100.00;100053.84;4922915;29;20242;-54
2023/01/24 05:11:37;;;;;;;30.40;14.10;;;;;;;1.20;100.00;100058.16;4911928;29;20861;-55
2023/01/24 05:14:05;;;;;;;17.13;8.10;;;;;;;1.22;100.00;100052.03;4924264;29;20320;-53
2023/01/24 05:16:31;;;;;;;22.10;9.80;;;;;;;1.26;100.00;100056.19;4910346;29;20233;-53
2023/01/24 05:18:58;;;;;;;29.37;14.30;;;;;;;1.25;100.00;100059.66;4910220;29;20242;-54
2023/01/24 05:21:26;;;;;;;28.10;13.70;;;;;;;1.30;100.00;100068.03;4925816;29;21102;-53
2023/01/24 05:23:53;;;;;;;27.97;14.53;;;;;;;1.26;100.00;100066.47;4913985;29;20244;-55
2023/01/24 05:26:24;;;;;;;27.97;13.57;;;;;;;1.21;100.00;100068.38;4911353;29;20236;-53
2023/01/24 05:28:52;;;;;;;28.23;13.63;;;;;;;1.24;100.00;100078.56;4925068;29;20299;-54
2023/01/24 05:31:19;;;;;;;23.23;11.53;;;;;;;1.26;100.00;100065.66;4927445;29;20231;-54
2023/01/24 05:33:47;;;;;;;27.60;14.00;;;;;;;1.30;100.00;100068.03;4907115;29;20711;-54
2023/01/24 05:36:15;;;;;;;24.17;11.87;;;;;;;1.32;100.00;100073.97;4926878;29;20251;-55
2023/01/24 05:38:44;;;;;;;26.27;12.57;;;;;;;1.37;100.00;100085.81;4910114;29;20246;-54
2023/01/24 05:41:13;;;;;;;25.80;13.80;;;;;;;1.35;100.00;100078.19;4910244;29;20694;-54
2023/01/24 05:43:41;;;;;;;25.97;12.50;;;;;;;1.34;100.00;100079.06;4910983;29;20240;-55
2023/01/24 05:46:11;;;;;;;28.53;13.90;;;;;;;1.35;100.00;100072.19;4912020;29;20250;-54
2023/01/24 05:48:44;;;;;;;25.90;12.70;;;;;;;1.39;100.00;100084.91;4907757;29;20231;-54
2023/01/24 05:51:14;;;;;;;23.33;11.77;;;;;;;1.32;100.00;100063.69;4925086;28;20690;-55
2023/01/24 05:53:42;;;;;;;23.23;11.20;;;;;;;1.29;100.00;100079.22;4922512;29;20235;-55
2023/01/24 05:56:13;;;;;;;25.77;12.70;;;;;;;1.30;100.00;100073.19;4909707;29;20596;-53
2023/01/24 05:58:43;;;;;;;25.77;13.13;;;;;;;1.33;100.00;100085.94;4910107;29;20226;-54
2023/01/24 06:01:15;;;;;;;24.00;11.67;;;;;;;1.36;100.00;100084.16;4909499;29;20655;-53
2023/01/24 06:03:45;;;;;;;30.13;12.70;;;;;;;1.36;100.00;100089.28;4906194;29;20247;-57
2023/01/24 06:06:15;;;;;;;25.73;13.00;;;;;;;1.37;100.00;100094.41;4912997;29;20231;-53
2023/01/24 06:08:42;;;;;;;19.70;9.10;;;;;;;1.37;100.00;100096.13;4907699;29;20247;-55
2023/01/24 06:11:12;;;;;;;26.97;12.07;;;;;;;1.40;100.00;100096.00;4908940;29;20243;-56
2023/01/24 06:13:40;;;;;;;26.90;12.33;;;;;;;1.39;100.00;100100.34;4927567;29;20698;-56
2023/01/24 06:16:12;;;;;;;26.17;12.50;;;;;;;1.41;100.00;100100.25;4924015;29;20231;-56
2023/01/24 06:18:39;;;;;;;24.50;11.80;;;;;;;1.40;100.00;100107.16;4910960;29;20720;-55
2023/01/24 06:21:08;;;;;;;23.67;9.97;;;;;;;1.37;100.00;100119.28;4909508;29;20594;-54
2023/01/24 06:23:35;;;;;;;25.57;12.20;;;;;;;1.39;100.00;100123.50;4909515;29;20239;-54
2023/01/24 06:26:06;;;;;;;26.35;14.60;;;;;;;1.40;100.00;100116.59;4905347;29;20803;-57
2023/01/24 06:28:33;;;;;;;25.30;12.90;;;;;;;1.41;100.00;100118.28;4912498;29;20310;-57
2023/01/24 06:31:12;;;;;;;16.63;6.97;;;;;;;1.40;100.00;100116.59;4908213;29;20239;-53
2023/01/24 06:33:52;;;;;;;21.50;11.27;;;;;;;1.47;100.00;100118.06;4912144;29;20283;-56
2023/01/24 06:36:39;;;;;;;25.77;13.23;;;;;;;1.46;100.00;100114.66;4908338;29;20238;-53
2023/01/24 06:39:11;;;;;;;23.43;12.50;;;;;;;1.44;100.00;100120.75;4910126;29;20238;-53
2023/01/24 06:41:38;;;;;;;26.50;12.70;;;;;;;1.44;100.00;100125.88;4911700;29;20226;-55
2023/01/24 06:44:05;;;;;;;23.20;10.37;;;;;;;1.44;100.00;100125.88;4909884;29;20243;-55
2023/01/24 06:46:33;;;;;;;26.90;13.20;;;;;;;1.47;100.00;100128.34;4911907;29;20864;-54
2023/01/24 06:49:00;;;;;;;38.07;19.13;;;;;;;1.44;100.00;100134.47;4909298;29;20242;-55
2023/01/24 06:51:26;;;;;;;24.87;12.90;;;;;;;1.41;100.00;100131.13;4910037;29;20573;-55
2023/01/24 06:53:53;;;;;;;25.17;10.30;;;;;;;1.42;100.00;100138.81;4908294;29;20227;-53
2023/01/24 06:56:19;;;;;;;24.80;12.83;;;;;;;1.46;100.00;100136.97;4912853;29;20263;-54
2023/01/24 06:58:47;;;;;;;25.20;12.80;;;;;;;1.43;100.00;100145.66;4909554;29;20227;-53
2023/01/24 07:01:13;;;;;;;20.20;10.50;;;;;;;1.42;100.00;100143.97;4912485;29;20235;-53
2023/01/24 07:03:41;;;;;;;27.52;15.38;;;;;;;1.49;100.00;100149.72;4906803;29;20458;-53
2023/01/24 07:06:08;;;;;;;25.83;14.23;;;;;;;1.48;100.00;100150.59;4908410;29;20708;-55
2023/01/24 07:08:34;;;;;;;28.90;12.87;;;;;;;1.48;100.00;100148.03;4910897;29;20596;-54
2023/01/24 07:11:01;;;;;;;29.23;12.50;;;;;;;1.50;100.00;100160.88;4908615;29;20589;-54
2023/01/24 07:13:27;;;;;;;32.50;19.47;;;;;;;1.46;100.00;100158.41;4912108;29;20220;-55
2023/01/24 07:15:54;;;;;;;31.40;16.83;;;;;;;1.51;100.00;100160.78;4907808;29;20234;-57
2023/01/24 07:18:21;;;;;;;28.23;13.73;;;;;;;1.53;100.00;100166.72;4910324;29;20282;-54
2023/01/24 07:20:50;;;;;;;27.77;14.70;;;;;;;1.53;100.00;100161.56;4906724;29;20224;-56
2023/01/24 07:23:21;;;;;;;23.33;10.13;;;;;;;1.51;100.00;100168.50;4909624;29;20275;-53
2023/01/24 07:25:48;;;;;;;33.10;19.98;;;;;;;1.58;100.00;100167.41;4907384;29;20455;-54
2023/01/24 07:28:15;;;;;;;27.10;15.40;;;;;;;1.57;100.00;100167.47;4912149;29;20553;-53
2023/01/24 07:30:44;;;;;;;25.77;13.83;;;;;;;1.65;100.00;100172.34;4906635;29;20259;-54
2023/01/24 07:33:11;;;;;;;33.13;18.17;;;;;;;1.67;100.00;100171.38;4911852;29;20219;-54
2023/01/24 07:35:38;;;;;;;16.23;8.63;;;;;;;1.61;100.00;100174.16;4912248;29;20704;-56
2023/01/24 07:38:06;;;;;;;24.90;12.27;;;;;;;1.60;100.00;100183.63;4906822;29;20585;-53
2023/01/24 07:40:32;;;;;;;26.83;13.50;;;;;;;1.69;100.00;100194.50;4912658;29;20771;-55
2023/01/24 07:42:59;;;;;;;24.97;13.03;;;;;;;1.64;100.00;100186.91;4906537;29;20849;-55
2023/01/24 07:45:26;;;;;;;26.97;11.93;;;;;;;1.63;100.00;100185.25;4909357;29;20230;-57
2023/01/24 07:47:55;;;;;;;24.07;13.07;;;;;;;1.72;100.00;100192.63;4906386;29;20231;-55
2023/01/24 07:50:21;;;;;;;23.83;12.80;;;;;;;1.71;100.00;100197.84;4910827;29;20235;-53
2023/01/24 07:52:51;;;;;;;27.23;12.80;;;;;;;1.78;100.00;100196.75;4908769;29;20235;-53
2023/01/24 07:55:19;;;;;;;25.67;13.03;;;;;;;1.72;100.00;100200.34;4911641;29;20306;-53
2023/01/24 07:57:45;;;;;;;26.83;13.70;;;;;;;1.68;100.00;100195.38;4911343;29;20231;-55
2023/01/24 08:00:13;;;;;;;25.27;12.17;;;;;;;1.67;100.00;100201.44;4914784;29;20239;-55
2023/01/24 08:02:40;;;;;;;25.27;12.63;;;;;;;1.66;100.00;100199.75;4907933;29;20243;-54
2023/01/24 08:05:07;;;;;;;29.07;13.13;;;;;;;1.77;100.00;100200.22;4910722;29;20303;-55
2023/01/24 08:07:33;;;;;;;24.93;12.83;;;;;;;1.80;100.00;100202.66;4912860;29;20295;-54
2023/01/24 08:10:00;;;;;;;24.13;11.90;;;;;;;1.84;100.00;100204.25;4910200;29;20697;-52
2023/01/24 08:12:28;;;;;;;26.30;13.27;;;;;;;1.87;100.00;100191.25;4910198;29;20341;-54
2023/01/24 08:14:54;;;;;;;27.63;13.33;;;;;;;1.96;100.00;100204.69;4905137;29;20254;-55
2023/01/24 08:17:21;;;;;;;21.10;8.83;;;;;;;1.82;100.00;100206.03;4909475;29;20227;-55
2023/01/24 08:19:47;;;;;;;26.13;13.23;;;;;;;1.92;100.00;100209.09;4911207;29;20355;-56
2023/01/24 08:22:14;;;;;;;22.43;10.60;;;;;;;1.97;99.87;100209.78;4914535;29;20311;-56
2023/01/24 08:24:41;;;;;;;23.73;11.07;;;;;;;1.86;99.70;100214.47;4910060;29;20250;-55
2023/01/24 08:27:07;;;;;;;25.30;12.50;;;;;;;1.98;100.00;100214.03;4912595;29;20306;-53
2023/01/24 08:29:35;;;;;;;27.97;14.63;;;;;;;1.96;99.99;100210.66;4912908;29;20228;-54
2023/01/24 08:32:02;;;;;;;22.60;11.43;;;;;;;1.98;99.74;100223.50;4909749;29;20743;-53
2023/01/24 08:34:28;;;;;;;24.20;12.53;;;;;;;2.13;99.02;100222.91;4914466;29;20226;-55
2023/01/24 08:36:55;;;;;;;25.23;12.07;;;;;;;2.13;99.23;100215.19;4908905;29;20301;-57
2023/01/24 08:39:21;;;;;;;28.37;14.70;;;;;;;2.18;98.37;100220.19;4913583;29;20267;-55
2023/01/24 08:41:48;;;;;;;25.87;13.20;;;;;;;2.25;98.81;100220.75;4909491;29;20231;-57
2023/01/24 08:44:15;;;;;;;22.03;11.03;;;;;;;2.09;98.28;100211.06;4912147;29;20246;-58
2023/01/24 08:46:43;;;;;;;25.50;13.07;;;;;;;2.23;98.23;100220.84;4913479;29;20264;-57
2023/01/24 08:49:10;;;;;;;27.77;13.73;;;;;;;2.27;97.88;100214.69;4913200;29;20728;-56
2023/01/24 08:51:37;;;;;;;23.03;11.53;;;;;;;2.13;98.38;100214.34;4915408;29;20304;-55
2023/01/24 08:54:05;;;;;;;26.50;12.83;;;;;;;2.24;98.17;100222.53;4912300;29;20235;-52
2023/01/24 08:56:32;;;;;;;25.77;12.53;;;;;;;2.33;97.29;100217.03;4917349;29;20239;-52
2023/01/24 08:58:58;;;;;;;30.13;17.43;;;;;;;2.25;97.47;100220.75;4912819;29;20287;-52
2023/01/24 09:01:26;;;;;;;23.80;13.17;;;;;;;2.34;96.76;100228.16;4913197;29;20281;-52
2023/01/24 09:03:56;;;;;;;24.70;13.57;;;;;;;2.33;96.72;100236.78;4911764;29;20262;-53
2023/01/24 09:06:23;;;;;;;22.27;11.73;;;;;;;2.44;97.21;100229.47;4913892;29;20619;-55
2023/01/24 09:08:52;;;;;;;22.83;13.07;;;;;;;2.51;96.16;100230.91;4910970;29;20235;-55
2023/01/24 09:11:19;;;;;;;25.07;12.53;;;;;;;2.47;95.30;100237.09;4913286;29;20350;-52
2023/01/24 09:13:46;;;;;;;27.87;12.80;;;;;;;2.58;95.78;100246.16;4910159;29;20223;-55
2023/01/24 09:16:12;;;;;;;24.20;11.27;;;;;;;2.41;95.67;100246.81;4913247;29;20290;-53
2023/01/24 09:18:39;;;;;;;19.97;9.77;;;;;;;2.26;97.11;100250.78;4912661;29;20232;-52
2023/01/24 09:21:07;;;;;;;25.47;11.97;;;;;;;2.31;97.24;100234.28;4911291;29;20239;-57
2023/01/24 09:23:33;;;;;;;22.37;11.87;;;;;;;2.47;97.40;100249.16;4911843;29;20231;-53
2023/01/24 09:26:00;;;;;;;21.73;10.23;;;;;;;2.44;96.14;100257.00;4908754;29;20243;-56
2023/01/24 09:28:27;;;;;;;24.20;13.30;;;;;;;2.54;95.45;100245.44;4912262;29;20306;-55
2023/01/24 09:30:54;;;;;;;24.53;12.77;;;;;;;2.54;95.28;100260.06;4904592;29;20241;-52
2023/01/24 09:33:21;;;;;;;23.30;11.87;;;;;;;2.74;94.51;100254.13;4914087;29;20224;-56
2023/01/24 09:35:52;;;;;;;23.47;11.00;;;;;;;2.60;94.31;100255.53;4901196;29;20231;-55
2023/01/24 09:38:22;;;;;;;138.03;70.87;;;;;;;2.63;94.55;100259.72;4916302;29;20255;-54
2023/01/24 09:40:55;;;;;;;21.37;12.37;;;;;;;2.69;94.22;100262.03;4905414;29;20639;-55
2023/01/24 09:43:42;;;;;;;24.37;13.20;;;;;;;2.75;94.05;100254.06;4914487;29;20232;-56
2023/01/24 09:46:17;;;;;;;22.57;11.20;;;;;;;2.70;93.78;100256.00;4909463;29;20231;-55
2023/01/24 09:48:45;;;;;;;26.03;13.83;;;;;;;2.59;95.26;100260.72;4909180;29;20231;-54
2023/01/24 09:51:17;;;;;;;19.27;8.67;;;;;;;2.54;94.80;100260.06;4913222;29;20236;-56
2023/01/24 09:53:50;;;;;;;23.83;11.27;;;;;;;2.69;93.86;100269.78;4906557;29;20577;-55
2023/01/24 09:56:26;;;;;;;26.37;12.90;;;;;;;2.89;95.11;100261.25;4912423;29;20246;-54
2023/01/24 09:59:12;;;;;;;25.83;12.40;;;;;;;3.22;95.33;100267.69;4909032;29;20238;-53
2023/01/24 10:01:40;;;;;;;24.20;11.23;;;;;;;3.06;93.43;100264.91;4910192;29;20242;-55
2023/01/24 10:04:28;;;;;;;26.20;13.67;;;;;;;3.16;90.81;100262.81;4905690;29;20972;-55
2023/01/24 10:07:06;;;;;;;22.13;12.47;;;;;;;3.17;91.34;100251.56;4907699;29;20312;-56
2023/01/24 10:09:45;;;;;;;23.13;11.23;;;;;;;2.93;93.34;100267.13;4910608;29;20298;-56
2023/01/24 10:12:25;;;;;;;23.23;10.80;;;;;;;3.21;91.40;100253.09;4907834;29;20300;-53
2023/01/24 10:15:09;;;;;;;22.67;11.00;;;;;;;3.06;92.13;100255.44;4908665;29;20231;-53
2023/01/24 10:17:53;;;;;;;23.23;11.67;;;;;;;2.95;92.24;100250.69;4911151;29;20303;-54
2023/01/24 10:20:46;;;;;;;16.17;8.80;;;;;;;2.94;91.98;100255.94;4908785;29;20242;-56
2023/01/24 10:23:16;;;;;;;19.87;10.07;;;;;;;3.14;90.41;100251.69;4907071;29;20240;-56
2023/01/24 10:25:57;;;;;;;18.17;8.87;;;;;;;2.98;91.33;100248.88;4907920;29;20249;-56
2023/01/24 10:28:27;;;;;;;11.93;6.27;;;;;;;2.91;91.78;100256.88;4911674;29;20247;-57
2023/01/24 10:31:00;;;;;;;15.63;7.20;;;;;;;2.97;91.32;100245.47;4908932;29;20235;-57
2023/01/24 10:33:31;;;;;;;21.50;9.43;;;;;;;3.08;92.37;100253.63;4914732;29;20577;-57
2023/01/24 10:36:05;;;;;;;22.40;11.90;;;;;;;3.19;91.98;100242.00;4909026;29;20234;-57
2023/01/24 10:38:32;;;;;;;21.07;10.70;;;;;;;3.27;91.01;100247.69;4910934;29;20708;-57
2023/01/24 10:41:15;;;;;;;21.10;11.30;;;;;;;3.45;91.34;100242.66;4906856;29;20302;-57
2023/01/24 10:43:42;;;;;;;24.23;11.97;;;;;;;2.98;91.12;100249.75;4907162;29;20310;-56
2023/01/24 10:46:25;;;;;;;24.23;10.83;;;;;;;2.92;92.22;100242.25;4911703;29;20299;-57
2023/01/24 10:48:56;;;;;;;23.47;11.17;;;;;;;3.05;91.83;100233.13;4905763;29;20692;-57
2023/01/24 10:51:24;;;;;;;25.23;12.13;;;;;;;3.14;92.43;100242.19;4912135;29;20239;-57
2023/01/24 10:53:51;;;;;;;21.87;9.43;;;;;;;3.14;92.74;100239.63;4908954;29;20235;-54
2023/01/24 10:56:21;;;;;;;24.40;11.83;;;;;;;3.03;92.97;100234.91;4912190;29;20291;-55
2023/01/24 10:58:56;;;;;;;23.37;11.60;;;;;;;3.08;93.21;100237.28;4907921;29;20298;-54
2023/01/24 11:01:24;;;;;;;20.63;10.33;;;;;;;3.04;91.89;100234.00;4908974;29;20568;-56
2023/01/24 11:03:52;;;;;;;26.53;13.20;;;;;;;3.27;91.63;100232.19;4906299;29;20316;-55
2023/01/24 11:06:32;;;;;;;52.07;25.17;;;;;;;3.28;91.89;100231.28;4910537;29;20249;-54
2023/01/24 11:09:04;;;;;;;25.13;13.37;;;;;;;3.24;91.22;100240.06;4908189;29;20688;-54
2023/01/24 11:11:34;;;;;;;22.00;10.17;;;;;;;3.07;92.34;100230.44;4910164;29;20239;-55
2023/01/24 11:14:02;;;;;;;21.33;10.40;;;;;;;3.13;91.51;100243.09;4908100;29;20343;-56
2023/01/24 11:16:34;;;;;;;18.83;9.43;;;;;;;3.23;90.69;100225.47;4910534;29;20242;-53
2023/01/24 11:19:02;;;;;;;19.33;11.70;;;;;;;3.18;91.32;100235.19;4907747;29;20751;-53
2023/01/24 11:21:30;;;;;;;22.73;11.67;;;;;;;3.23;91.62;100238.38;4909516;29;20741;-53
2023/01/24 11:24:02;;;;;;;19.50;9.03;;;;;;;3.23;90.72;100234.09;4906953;29;20227;-53
2023/01/24 11:26:32;;;;;;;26.43;11.97;;;;;;;3.51;90.46;100238.09;4908934;29;20231;-53
2023/01/24 11:29:01;;;;;;;18.30;9.63;;;;;;;3.19;91.07;100231.69;4907400;29;20262;-53
2023/01/24 11:31:32;;;;;;;20.60;9.30;;;;;;;3.23;91.98;100233.22;4910539;29;20235;-56
2023/01/24 11:34:38;;;;;;;24.97;11.47;;;;;;;3.48;90.92;100225.31;4908429;29;20241;-53
2023/01/24 11:37:14;;;;;;;19.13;9.47;;;;;;;3.36;90.91;100231.00;4910265;29;20302;-54
2023/01/24 11:39:50;;;;;;;20.73;11.67;;;;;;;3.19;92.25;100221.34;4905545;29;20633;-55
2023/01/24 11:42:29;;;;;;;25.57;12.93;;;;;;;3.28;92.05;100220.16;4913023;29;20235;-54
2023/01/24 11:45:18;;;;;;;25.77;12.77;;;;;;;3.48;91.20;100225.31;4908380;29;20242;-53
2023/01/24 11:47:53;;;;;;;20.03;9.70;;;;;;;3.25;91.38;100219.38;4908633;29;20247;-53
2023/01/24 11:50:37;;;;;;;23.67;11.70;;;;;;;3.45;91.00;100215.09;4910368;29;20715;-54
2023/01/24 11:53:22;;;;;;;19.10;9.27;;;;;;;3.46;91.28;100213.34;4906724;29;20782;-52
2023/01/24 11:55:57;;;;;;;22.43;11.43;;;;;;;3.65;90.73;100208.25;4905531;29;20692;-55
2023/01/24 11:58:47;;;;;;;18.60;9.90;;;;;;;3.65;89.72;100209.06;4910094;29;20255;-57
2023/01/24 12:01:22;;;;;;;20.40;10.27;;;;;;;3.86;89.02;100206.44;4906853;29;20231;-56